sensor_id;sensor_type;location;lat;lon;timestamp;pressure;altitude;pressure_sealevel;temperature;humidity
59600;BME280;61855;55.030;73.326;2022-08-19T00:01:40;100703.50;;;9.17;nan
59600;BME280;61855;55.030;73.326;2022-08-19T00:04:14;100711.03;;;9.13;nan
59600;BME280;61855;55.030;73.326;2022-08-19T00:06:42;100703.50;;;9.17;nan
59600;BME280;61855;55.030;73.326;2022-08-19T00:09:10;100711.28;;;9.20;nan
59600;BME280;61855;55.030;73.326;2022-08-19T00:11:37;100720.66;;;9.16;nan
59600;BME280;61855;55.030;73.326;2022-08-19T00:14:15;100727.56;;;9.18;nan
59600;BME280;61855;55.030;73.326;2022-08-19T00:16:44;100714.50;;;9.23;nan
59600;BME280;61855;55.030;73.326;2022-08-19T00:19:11;100726.13;;;9.24;nan
59600;BME280;61855;55.030;73.326;2022-08-19T00:21:37;100725.25;;;9.23;nan
59600;BME280;61855;55.030;73.326;2022-08-19T00:24:07;100714.66;;;9.22;nan
59600;BME280;61855;55.030;73.326;2022-08-19T00:26:34;100723.13;;;9.27;nan
59600;BME280;61855;55.030;73.326;2022-08-19T00:29:00;100723.94;;;9.27;nan
59600;BME280;61855;55.030;73.326;2022-08-19T00:31:31;100732.88;;;9.28;nan
59600;BME280;61855;55.030;73.326;2022-08-19T00:33:58;100722.09;;;9.28;nan
59600;BME280;61855;55.030;73.326;2022-08-19T00:36:24;100724.97;;;9.26;nan
59600;BME280;61855;55.030;73.326;2022-08-19T00:38:51;100726.63;;;9.27;nan
59600;BME280;61855;55.030;73.326;2022-08-19T00:41:20;100709.00;;;9.33;nan
59600;BME280;61855;55.030;73.326;2022-08-19T00:46:29;100734.16;;;9.41;nan
59600;BME280;61855;55.030;73.326;2022-08-19T00:48:57;100732.16;;;9.43;nan
59600;BME280;61855;55.030;73.326;2022-08-19T00:51:25;100731.16;;;9.44;nan
59600;BME280;61855;55.030;73.326;2022-08-19T00:53:58;100727.94;;;9.41;nan
59600;BME280;61855;55.030;73.326;2022-08-19T00:56:28;100715.63;;;9.38;nan
59600;BME280;61855;55.030;73.326;2022-08-19T00:58:56;100727.09;;;9.40;nan
59600;BME280;61855;55.030;73.326;2022-08-19T01:01:24;100719.22;;;9.47;nan
59600;BME280;61855;55.030;73.326;2022-08-19T01:03:50;100708.25;;;9.40;nan
59600;BME280;61855;55.030;73.326;2022-08-19T01:06:26;100716.34;;;9.48;nan
59600;BME280;61855;55.030;73.326;2022-08-19T01:08:54;100717.75;;;9.52;nan
59600;BME280;61855;55.030;73.326;2022-08-19T01:11:34;100729.22;;;9.54;nan
59600;BME280;61855;55.030;73.326;2022-08-19T01:14:06;100706.81;;;9.54;nan
59600;BME280;61855;55.030;73.326;2022-08-19T01:16:43;100694.88;;;9.57;nan
59600;BME280;61855;55.030;73.326;2022-08-19T01:19:21;100702.66;;;9.60;nan
59600;BME280;61855;55.030;73.326;2022-08-19T01:21:57;100704.50;;;9.59;nan
59600;BME280;61855;55.030;73.326;2022-08-19T01:24:27;100703.50;;;9.60;nan
59600;BME280;61855;55.030;73.326;2022-08-19T01:26:57;100705.75;;;9.73;nan
59600;BME280;61855;55.030;73.326;2022-08-19T01:29:24;100710.13;;;9.74;nan
59600;BME280;61855;55.030;73.326;2022-08-19T01:31:50;100696.66;;;9.74;nan
59600;BME280;61855;55.030;73.326;2022-08-19T01:34:27;100699.38;;;9.82;nan
59600;BME280;61855;55.030;73.326;2022-08-19T01:36:53;100694.84;;;9.82;nan
59600;BME280;61855;55.030;73.326;2022-08-19T01:39:22;100709.19;;;9.83;nan
59600;BME280;61855;55.030;73.326;2022-08-19T01:41:49;100704.09;;;9.80;nan
59600;BME280;61855;55.030;73.326;2022-08-19T01:44:16;100696.00;;;9.80;nan
59600;BME280;61855;55.030;73.326;2022-08-19T01:46:47;100706.84;;;9.88;nan
59600;BME280;61855;55.030;73.326;2022-08-19T01:49:14;100702.25;;;9.80;nan
59600;BME280;61855;55.030;73.326;2022-08-19T01:51:41;100704.94;;;9.80;nan
59600;BME280;61855;55.030;73.326;2022-08-19T01:54:12;100705.13;;;9.79;nan
59600;BME280;61855;55.030;73.326;2022-08-19T01:56:38;100701.75;;;9.77;nan
59600;BME280;61855;55.030;73.326;2022-08-19T01:59:14;100692.63;;;9.78;nan
59600;BME280;61855;55.030;73.326;2022-08-19T02:01:42;100701.78;;;9.85;nan
59600;BME280;61855;55.030;73.326;2022-08-19T02:04:13;100701.47;;;9.88;nan
59600;BME280;61855;55.030;73.326;2022-08-19T02:06:41;100697.91;;;9.87;nan
59600;BME280;61855;55.030;73.326;2022-08-19T02:09:08;100697.63;;;9.98;nan
59600;BME280;61855;55.030;73.326;2022-08-19T02:11:35;100695.78;;;9.99;nan
59600;BME280;61855;55.030;73.326;2022-08-19T02:14:07;100691.78;;;10.03;nan
59600;BME280;61855;55.030;73.326;2022-08-19T02:16:39;100698.22;;;10.10;nan
59600;BME280;61855;55.030;73.326;2022-08-19T02:19:06;100687.63;;;10.16;nan
59600;BME280;61855;55.030;73.326;2022-08-19T02:21:32;100686.63;;;10.17;nan
59600;BME280;61855;55.030;73.326;2022-08-19T02:23:59;100696.22;;;10.20;nan
59600;BME280;61855;55.030;73.326;2022-08-19T02:26:25;100697.75;;;10.23;nan
59600;BME280;61855;55.030;73.326;2022-08-19T02:28:55;100692.59;;;10.29;nan
59600;BME280;61855;55.030;73.326;2022-08-19T02:31:24;100702.03;;;10.33;nan
59600;BME280;61855;55.030;73.326;2022-08-19T02:33:50;100705.03;;;10.30;nan
59600;BME280;61855;55.030;73.326;2022-08-19T02:36:18;100711.94;;;10.25;nan
59600;BME280;61855;55.030;73.326;2022-08-19T02:38:44;100695.25;;;10.21;nan
59600;BME280;61855;55.030;73.326;2022-08-19T02:41:20;100706.63;;;10.41;nan
59600;BME280;61855;55.030;73.326;2022-08-19T02:43:47;100707.78;;;10.38;nan
59600;BME280;61855;55.030;73.326;2022-08-19T02:46:25;100708.63;;;10.39;nan
59600;BME280;61855;55.030;73.326;2022-08-19T02:48:54;100711.53;;;10.53;nan
59600;BME280;61855;55.030;73.326;2022-08-19T02:51:34;100709.84;;;10.52;nan
59600;BME280;61855;55.030;73.326;2022-08-19T02:54:01;100711.88;;;10.58;nan
59600;BME280;61855;55.030;73.326;2022-08-19T02:56:39;100707.00;;;10.70;nan
59600;BME280;61855;55.030;73.326;2022-08-19T02:59:06;100721.53;;;10.69;nan
59600;BME280;61855;55.030;73.326;2022-08-19T03:01:38;100710.56;;;10.70;nan
59600;BME280;61855;55.030;73.326;2022-08-19T03:04:13;100726.75;;;10.70;nan
59600;BME280;61855;55.030;73.326;2022-08-19T03:06:42;100711.91;;;10.74;nan
59600;BME280;61855;55.030;73.326;2022-08-19T03:09:14;100711.41;;;10.71;nan
59600;BME280;61855;55.030;73.326;2022-08-19T03:11:40;100709.19;;;10.74;nan
59600;BME280;61855;55.030;73.326;2022-08-19T03:14:07;100712.25;;;10.71;nan
59600;BME280;61855;55.030;73.326;2022-08-19T03:16:45;100714.94;;;10.79;nan
59600;BME280;61855;55.030;73.326;2022-08-19T03:19:13;100712.59;;;10.76;nan
59600;BME280;61855;55.030;73.326;2022-08-19T03:21:39;100721.19;;;10.80;nan
59600;BME280;61855;55.030;73.326;2022-08-19T03:24:07;100699.44;;;10.73;nan
59600;BME280;61855;55.030;73.326;2022-08-19T03:26:38;100712.78;;;10.83;nan
59600;BME280;61855;55.030;73.326;2022-08-19T03:29:10;100702.81;;;10.92;nan
59600;BME280;61855;55.030;73.326;2022-08-19T03:31:38;100717.69;;;10.96;nan
59600;BME280;61855;55.030;73.326;2022-08-19T03:34:05;100706.91;;;10.96;nan
59600;BME280;61855;55.030;73.326;2022-08-19T03:36:31;100706.56;;;11.07;nan
59600;BME280;61855;55.030;73.326;2022-08-19T03:39:00;100704.34;;;11.10;nan
59600;BME280;61855;55.030;73.326;2022-08-19T03:41:30;100708.41;;;11.22;nan
59600;BME280;61855;55.030;73.326;2022-08-19T03:43:57;100712.44;;;11.10;nan
59600;BME280;61855;55.030;73.326;2022-08-19T03:46:28;100707.56;;;11.06;nan
59600;BME280;61855;55.030;73.326;2022-08-19T03:48:58;100705.38;;;11.09;nan
59600;BME280;61855;55.030;73.326;2022-08-19T03:51:31;100705.19;;;11.11;nan
59600;BME280;61855;55.030;73.326;2022-08-19T03:54:00;100712.28;;;11.20;nan
59600;BME280;61855;55.030;73.326;2022-08-19T03:56:27;100707.41;;;11.15;nan
59600;BME280;61855;55.030;73.326;2022-08-19T03:58:57;100705.22;;;11.19;nan
59600;BME280;61855;55.030;73.326;2022-08-19T04:01:27;100693.22;;;11.29;nan
59600;BME280;61855;55.030;73.326;2022-08-19T04:03:56;100698.97;;;11.42;nan
59600;BME280;61855;55.030;73.326;2022-08-19T04:06:25;100699.97;;;11.49;nan
59600;BME280;61855;55.030;73.326;2022-08-19T04:08:54;100696.03;;;11.60;nan
59600;BME280;61855;55.030;73.326;2022-08-19T04:11:28;100698.25;;;11.65;nan
59600;BME280;61855;55.030;73.326;2022-08-19T04:13:55;100712.09;;;11.70;nan
59600;BME280;61855;55.030;73.326;2022-08-19T04:16:27;100689.44;;;11.87;nan
59600;BME280;61855;55.030;73.326;2022-08-19T04:18:56;100701.44;;;11.84;nan
59600;BME280;61855;55.030;73.326;2022-08-19T04:21:33;100684.88;;;11.87;nan
59600;BME280;61855;55.030;73.326;2022-08-19T04:23:59;100698.34;;;12.03;nan
59600;BME280;61855;55.030;73.326;2022-08-19T04:26:31;100706.94;;;12.07;nan
59600;BME280;61855;55.030;73.326;2022-08-19T04:28:59;100698.72;;;11.92;nan
59600;BME280;61855;55.030;73.326;2022-08-19T04:31:28;100696.34;;;11.97;nan
59600;BME280;61855;55.030;73.326;2022-08-19T04:34:10;100706.09;;;12.06;nan
59600;BME280;61855;55.030;73.326;2022-08-19T04:36:39;100709.13;;;12.11;nan
59600;BME280;61855;55.030;73.326;2022-08-19T04:39:17;100704.59;;;12.04;nan
59600;BME280;61855;55.030;73.326;2022-08-19T04:41:44;100709.81;;;12.05;nan
59600;BME280;61855;55.030;73.326;2022-08-19T04:44:33;100706.25;;;12.13;nan
59600;BME280;61855;55.030;73.326;2022-08-19T04:47:02;100708.41;;;12.26;nan
59600;BME280;61855;55.030;73.326;2022-08-19T04:49:33;100708.38;;;12.34;nan
59600;BME280;61855;55.030;73.326;2022-08-19T04:51:59;100686.00;;;12.40;nan
59600;BME280;61855;55.030;73.326;2022-08-19T04:54:25;100689.59;;;12.63;nan
59600;BME280;61855;55.030;73.326;2022-08-19T04:57:03;100685.06;;;13.09;nan
59600;BME280;61855;55.030;73.326;2022-08-19T04:59:31;100687.63;;;13.25;nan
59600;BME280;61855;55.030;73.326;2022-08-19T05:01:59;100673.47;;;13.37;nan
59600;BME280;61855;55.030;73.326;2022-08-19T05:04:25;100678.81;;;13.45;nan
59600;BME280;61855;55.030;73.326;2022-08-19T05:06:51;100682.88;;;13.27;nan
59600;BME280;61855;55.030;73.326;2022-08-19T05:09:19;100681.16;;;13.48;nan
59600;BME280;61855;55.030;73.326;2022-08-19T05:11:52;100668.19;;;13.58;nan
59600;BME280;61855;55.030;73.326;2022-08-19T05:14:19;100674.06;;;13.47;nan
59600;BME280;61855;55.030;73.326;2022-08-19T05:16:46;100668.09;;;13.67;nan
59600;BME280;61855;55.030;73.326;2022-08-19T05:19:12;100677.06;;;13.67;nan
59600;BME280;61855;55.030;73.326;2022-08-19T05:21:57;100678.19;;;13.73;nan
59600;BME280;61855;55.030;73.326;2022-08-19T05:24:41;100662.66;;;13.81;nan
59600;BME280;61855;55.030;73.326;2022-08-19T05:27:09;100661.16;;;13.93;nan
59600;BME280;61855;55.030;73.326;2022-08-19T05:29:35;100688.22;;;14.01;nan
59600;BME280;61855;55.030;73.326;2022-08-19T05:32:04;100667.44;;;14.23;nan
59600;BME280;61855;55.030;73.326;2022-08-19T05:34:31;100649.28;;;14.09;nan
59600;BME280;61855;55.030;73.326;2022-08-19T05:36:59;100646.09;;;14.05;nan
59600;BME280;61855;55.030;73.326;2022-08-19T05:39:28;100650.31;;;14.08;nan
59600;BME280;61855;55.030;73.326;2022-08-19T05:41:57;100664.34;;;14.26;nan
59600;BME280;61855;55.030;73.326;2022-08-19T05:44:25;100659.75;;;14.41;nan
59600;BME280;61855;55.030;73.326;2022-08-19T05:47:07;100650.59;;;14.63;nan
59600;BME280;61855;55.030;73.326;2022-08-19T05:49:36;100643.88;;;14.59;nan
59600;BME280;61855;55.030;73.326;2022-08-19T05:52:04;100645.16;;;14.63;nan
59600;BME280;61855;55.030;73.326;2022-08-19T05:54:32;100631.97;;;14.60;nan
59600;BME280;61855;55.030;73.326;2022-08-19T05:57:00;100642.19;;;14.58;nan
59600;BME280;61855;55.030;73.326;2022-08-19T05:59:39;100638.94;;;14.48;nan
59600;BME280;61855;55.030;73.326;2022-08-19T06:02:06;100628.41;;;14.60;nan
59600;BME280;61855;55.030;73.326;2022-08-19T06:04:32;100640.88;;;14.33;nan
59600;BME280;61855;55.030;73.326;2022-08-19T06:06:59;100626.28;;;14.76;nan
59600;BME280;61855;55.030;73.326;2022-08-19T06:09:25;100627.59;;;14.80;nan
59600;BME280;61855;55.030;73.326;2022-08-19T06:11:54;100623.97;;;14.73;nan
59600;BME280;61855;55.030;73.326;2022-08-19T06:14:26;100621.31;;;14.80;nan
59600;BME280;61855;55.030;73.326;2022-08-19T06:16:52;100622.81;;;14.82;nan
59600;BME280;61855;55.030;73.326;2022-08-19T06:19:24;100623.44;;;15.06;nan
59600;BME280;61855;55.030;73.326;2022-08-19T06:21:54;100623.00;;;15.30;nan
59600;BME280;61855;55.030;73.326;2022-08-19T06:24:23;100626.41;;;15.38;nan
59600;BME280;61855;55.030;73.326;2022-08-19T06:26:52;100613.63;;;15.32;nan
59600;BME280;61855;55.030;73.326;2022-08-19T06:29:21;100604.97;;;15.22;nan
59600;BME280;61855;55.030;73.326;2022-08-19T06:31:49;100622.19;;;15.08;nan
59600;BME280;61855;55.030;73.326;2022-08-19T06:34:16;100628.75;;;14.93;nan
59600;BME280;61855;55.030;73.326;2022-08-19T06:36:46;100609.78;;;14.99;nan
59600;BME280;61855;55.030;73.326;2022-08-19T06:39:33;100610.69;;;15.06;nan
59600;BME280;61855;55.030;73.326;2022-08-19T06:42:02;100589.63;;;15.15;nan
59600;BME280;61855;55.030;73.326;2022-08-19T06:44:33;100607.47;;;15.45;nan
59600;BME280;61855;55.030;73.326;2022-08-19T06:47:07;100607.56;;;15.58;nan
59600;BME280;61855;55.030;73.326;2022-08-19T06:49:34;100602.69;;;15.26;nan
59600;BME280;61855;55.030;73.326;2022-08-19T06:52:01;100609.66;;;14.86;nan
59600;BME280;61855;55.030;73.326;2022-08-19T06:54:28;100614.59;;;14.76;nan
59600;BME280;61855;55.030;73.326;2022-08-19T06:56:58;100602.66;;;14.35;nan
59600;BME280;61855;55.030;73.326;2022-08-19T06:59:28;100614.00;;;14.09;nan
59600;BME280;61855;55.030;73.326;2022-08-19T07:02:00;100606.59;;;14.17;nan
59600;BME280;61855;55.030;73.326;2022-08-19T07:04:29;100607.47;;;14.03;nan
59600;BME280;61855;55.030;73.326;2022-08-19T07:07:08;100621.91;;;13.75;nan
59600;BME280;61855;55.030;73.326;2022-08-19T07:09:37;100608.44;;;13.67;nan
59600;BME280;61855;55.030;73.326;2022-08-19T07:12:05;100620.66;;;13.48;nan
59600;BME280;61855;55.030;73.326;2022-08-19T07:14:33;100607.00;;;13.41;nan
59600;BME280;61855;55.030;73.326;2022-08-19T07:17:07;100610.84;;;13.32;nan
59600;BME280;61855;55.030;73.326;2022-08-19T07:19:35;100642.88;;;13.14;nan
59600;BME280;61855;55.030;73.326;2022-08-19T07:22:03;100618.31;;;12.93;nan
59600;BME280;61855;55.030;73.326;2022-08-19T07:24:30;100612.69;;;12.72;nan
59600;BME280;61855;55.030;73.326;2022-08-19T07:26:58;100615.84;;;12.83;nan
59600;BME280;61855;55.030;73.326;2022-08-19T07:29:32;100613.91;;;12.92;nan
59600;BME280;61855;55.030;73.326;2022-08-19T07:32:01;100626.66;;;13.06;nan
59600;BME280;61855;55.030;73.326;2022-08-19T07:34:29;100612.41;;;13.27;nan
59600;BME280;61855;55.030;73.326;2022-08-19T07:36:56;100618.41;;;13.37;nan
59600;BME280;61855;55.030;73.326;2022-08-19T07:39:26;100602.50;;;13.34;nan
59600;BME280;61855;55.030;73.326;2022-08-19T07:41:53;100620.09;;;13.23;nan
59600;BME280;61855;55.030;73.326;2022-08-19T07:44:21;100618.47;;;13.29;nan
59600;BME280;61855;55.030;73.326;2022-08-19T07:46:51;100610.91;;;13.24;nan
59600;BME280;61855;55.030;73.326;2022-08-19T07:49:19;100613.34;;;13.34;nan
59600;BME280;61855;55.030;73.326;2022-08-19T07:51:49;100608.88;;;13.55;nan
59600;BME280;61855;55.030;73.326;2022-08-19T07:54:16;100590.66;;;13.49;nan
59600;BME280;61855;55.030;73.326;2022-08-19T07:56:43;100610.59;;;13.86;nan
59600;BME280;61855;55.030;73.326;2022-08-19T07:59:09;100603.91;;;14.03;nan
59600;BME280;61855;55.030;73.326;2022-08-19T08:01:36;100597.81;;;14.15;nan
59600;BME280;61855;55.030;73.326;2022-08-19T08:04:02;100603.94;;;14.24;nan
59600;BME280;61855;55.030;73.326;2022-08-19T08:06:48;100606.50;;;14.25;nan
59600;BME280;61855;55.030;73.326;2022-08-19T08:09:37;100606.22;;;14.20;nan
59600;BME280;61855;55.030;73.326;2022-08-19T08:12:11;100592.66;;;14.20;nan
59600;BME280;61855;55.030;73.326;2022-08-19T08:14:47;100602.66;;;14.20;nan
59600;BME280;61855;55.030;73.326;2022-08-19T08:17:15;100593.81;;;13.97;nan
59600;BME280;61855;55.030;73.326;2022-08-19T08:19:42;100594.53;;;14.05;nan
59600;BME280;61855;55.030;73.326;2022-08-19T08:22:10;100594.06;;;14.16;nan
59600;BME280;61855;55.030;73.326;2022-08-19T08:25:04;100607.78;;;14.30;nan
59600;BME280;61855;55.030;73.326;2022-08-19T08:27:41;100591.53;;;14.15;nan
59600;BME280;61855;55.030;73.326;2022-08-19T08:30:10;100603.63;;;13.98;nan
59600;BME280;61855;55.030;73.326;2022-08-19T08:32:38;100592.31;;;13.94;nan
59600;BME280;61855;55.030;73.326;2022-08-19T08:35:07;100587.75;;;13.95;nan
59600;BME280;61855;55.030;73.326;2022-08-19T08:37:34;100588.28;;;14.05;nan
59600;BME280;61855;55.030;73.326;2022-08-19T08:40:07;100592.16;;;14.32;nan
59600;BME280;61855;55.030;73.326;2022-08-19T08:42:37;100585.28;;;14.50;nan
59600;BME280;61855;55.030;73.326;2022-08-19T08:45:13;100580.84;;;14.43;nan
59600;BME280;61855;55.030;73.326;2022-08-19T08:47:47;100574.66;;;14.34;nan
59600;BME280;61855;55.030;73.326;2022-08-19T08:50:20;100576.72;;;14.32;nan
59600;BME280;61855;55.030;73.326;2022-08-19T08:52:56;100570.72;;;14.22;nan
59600;BME280;61855;55.030;73.326;2022-08-19T08:55:26;100587.88;;;14.22;nan
59600;BME280;61855;55.030;73.326;2022-08-19T08:58:05;100579.75;;;14.08;nan
59600;BME280;61855;55.030;73.326;2022-08-19T09:00:34;100579.00;;;14.14;nan
59600;BME280;61855;55.030;73.326;2022-08-19T09:03:23;100582.94;;;14.11;nan
59600;BME280;61855;55.030;73.326;2022-08-19T09:14:32;100574.69;;;14.05;nan
59600;BME280;61855;55.030;73.326;2022-08-19T09:17:11;100593.81;;;13.97;nan
59600;BME280;61855;55.030;73.326;2022-08-19T09:19:53;100578.69;;;13.88;nan
59600;BME280;61855;55.030;73.326;2022-08-19T09:22:22;100579.97;;;13.92;nan
59600;BME280;61855;55.030;73.326;2022-08-19T09:24:49;100570.91;;;13.99;nan
59600;BME280;61855;55.030;73.326;2022-08-19T09:27:23;100564.81;;;13.97;nan
59600;BME280;61855;55.030;73.326;2022-08-19T09:29:56;100573.91;;;13.90;nan
59600;BME280;61855;55.030;73.326;2022-08-19T09:32:22;100557.50;;;13.98;nan
59600;BME280;61855;55.030;73.326;2022-08-19T09:35:00;100554.28;;;13.88;nan
59600;BME280;61855;55.030;73.326;2022-08-19T09:37:27;100578.88;;;13.72;nan
59600;BME280;61855;55.030;73.326;2022-08-19T09:39:53;100561.38;;;13.74;nan
59600;BME280;61855;55.030;73.326;2022-08-19T09:42:19;100561.31;;;13.68;nan
59600;BME280;61855;55.030;73.326;2022-08-19T09:44:46;100573.28;;;13.58;nan
59600;BME280;61855;55.030;73.326;2022-08-19T09:47:20;100565.13;;;13.58;nan
59600;BME280;61855;55.030;73.326;2022-08-19T09:49:48;100557.38;;;13.55;nan
59600;BME280;61855;55.030;73.326;2022-08-19T09:52:16;100563.06;;;13.46;nan
59600;BME280;61855;55.030;73.326;2022-08-19T09:54:43;100563.84;;;13.40;nan
59600;BME280;61855;55.030;73.326;2022-08-19T09:57:16;100563.09;;;13.17;nan
59600;BME280;61855;55.030;73.326;2022-08-19T09:59:42;100569.59;;;12.85;nan
59600;BME280;61855;55.030;73.326;2022-08-19T10:02:10;100581.06;;;12.50;nan
59600;BME280;61855;55.030;73.326;2022-08-19T10:04:36;100558.63;;;12.41;nan
59600;BME280;61855;55.030;73.326;2022-08-19T10:07:22;100565.84;;;12.26;nan
59600;BME280;61855;55.030;73.326;2022-08-19T10:09:48;100570.13;;;12.12;nan
59600;BME280;61855;55.030;73.326;2022-08-19T10:12:26;100562.44;;;12.01;nan
59600;BME280;61855;55.030;73.326;2022-08-19T10:14:58;100568.69;;;12.02;nan
59600;BME280;61855;55.030;73.326;2022-08-19T10:17:24;100567.88;;;11.93;nan
59600;BME280;61855;55.030;73.326;2022-08-19T10:20:01;100565.22;;;11.85;nan
59600;BME280;61855;55.030;73.326;2022-08-19T10:22:30;100566.22;;;11.84;nan
59600;BME280;61855;55.030;73.326;2022-08-19T10:24:56;100561.31;;;11.88;nan
59600;BME280;61855;55.030;73.326;2022-08-19T10:27:29;100558.31;;;11.83;nan
59600;BME280;61855;55.030;73.326;2022-08-19T10:29:56;100575.22;;;11.77;nan
59600;BME280;61855;55.030;73.326;2022-08-19T10:32:27;100564.94;;;11.72;nan
59600;BME280;61855;55.030;73.326;2022-08-19T10:34:55;100560.22;;;11.66;nan
59600;BME280;61855;55.030;73.326;2022-08-19T10:37:22;100574.91;;;11.64;nan
59600;BME280;61855;55.030;73.326;2022-08-19T10:39:48;100563.75;;;11.67;nan
59600;BME280;61855;55.030;73.326;2022-08-19T10:42:14;100550.25;;;11.67;nan
59600;BME280;61855;55.030;73.326;2022-08-19T10:44:41;100552.44;;;11.71;nan
59600;BME280;61855;55.030;73.326;2022-08-19T10:47:09;100559.91;;;11.69;nan
59600;BME280;61855;55.030;73.326;2022-08-19T10:49:35;100563.91;;;11.81;nan
59600;BME280;61855;55.030;73.326;2022-08-19T10:52:26;100550.38;;;11.81;nan
59600;BME280;61855;55.030;73.326;2022-08-19T10:55:06;100556.59;;;11.90;nan
59600;BME280;61855;55.030;73.326;2022-08-19T10:57:53;100550.59;;;12.02;nan
59600;BME280;61855;55.030;73.326;2022-08-19T11:00:20;100550.81;;;12.23;nan
59600;BME280;61855;55.030;73.326;2022-08-19T11:02:46;100566.63;;;12.35;nan
59600;BME280;61855;55.030;73.326;2022-08-19T11:05:12;100554.06;;;12.42;nan
59600;BME280;61855;55.030;73.326;2022-08-19T11:07:40;100551.28;;;12.50;nan
59600;BME280;61855;55.030;73.326;2022-08-19T11:10:09;100557.13;;;12.61;nan
59600;BME280;61855;55.030;73.326;2022-08-19T11:12:39;100549.84;;;12.62;nan
59600;BME280;61855;55.030;73.326;2022-08-19T11:15:10;100560.53;;;12.78;nan
59600;BME280;61855;55.030;73.326;2022-08-19T11:17:40;100551.00;;;12.82;nan
59600;BME280;61855;55.030;73.326;2022-08-19T11:20:13;100553.09;;;12.95;nan
59600;BME280;61855;55.030;73.326;2022-08-19T11:22:41;100550.81;;;13.06;nan
59600;BME280;61855;55.030;73.326;2022-08-19T11:25:10;100551.84;;;13.20;nan
59600;BME280;61855;55.030;73.326;2022-08-19T11:27:40;100550.44;;;13.09;nan
59600;BME280;61855;55.030;73.326;2022-08-19T11:30:11;100548.59;;;13.10;nan
59600;BME280;61855;55.030;73.326;2022-08-19T11:32:37;100562.97;;;13.10;nan
59600;BME280;61855;55.030;73.326;2022-08-19T11:35:04;100560.97;;;13.04;nan
59600;BME280;61855;55.030;73.326;2022-08-19T11:37:30;100557.72;;;12.86;nan
59600;BME280;61855;55.030;73.326;2022-08-19T11:39:56;100551.31;;;12.87;nan
59600;BME280;61855;55.030;73.326;2022-08-19T11:42:22;100553.06;;;12.80;nan
59600;BME280;61855;55.030;73.326;2022-08-19T11:45:08;100552.41;;;12.78;nan
59600;BME280;61855;55.030;73.326;2022-08-19T11:47:36;100545.38;;;12.69;nan
59600;BME280;61855;55.030;73.326;2022-08-19T11:50:02;100551.50;;;12.63;nan
59600;BME280;61855;55.030;73.326;2022-08-19T11:52:28;100553.25;;;12.56;nan
59600;BME280;61855;55.030;73.326;2022-08-19T11:54:55;100552.91;;;12.59;nan
59600;BME280;61855;55.030;73.326;2022-08-19T11:57:21;100564.81;;;12.50;nan
59600;BME280;61855;55.030;73.326;2022-08-19T11:59:49;100552.91;;;12.36;nan
59600;BME280;61855;55.030;73.326;2022-08-19T12:02:16;100544.00;;;12.28;nan
59600;BME280;61855;55.030;73.326;2022-08-19T12:04:42;100548.41;;;12.29;nan
59600;BME280;61855;55.030;73.326;2022-08-19T12:07:08;100554.53;;;12.22;nan
59600;BME280;61855;55.030;73.326;2022-08-19T12:09:34;100566.41;;;12.13;nan
59600;BME280;61855;55.030;73.326;2022-08-19T12:12:00;100551.06;;;12.06;nan
59600;BME280;61855;55.030;73.326;2022-08-19T12:14:29;100551.91;;;12.06;nan
59600;BME280;61855;55.030;73.326;2022-08-19T12:16:56;100557.81;;;12.10;nan
59600;BME280;61855;55.030;73.326;2022-08-19T12:19:22;100540.38;;;12.12;nan
59600;BME280;61855;55.030;73.326;2022-08-19T12:21:50;100551.88;;;12.14;nan
59600;BME280;61855;55.030;73.326;2022-08-19T12:24:17;100552.66;;;12.23;nan
59600;BME280;61855;55.030;73.326;2022-08-19T12:26:49;100551.69;;;12.39;nan
59600;BME280;61855;55.030;73.326;2022-08-19T12:29:16;100542.41;;;12.78;nan
59600;BME280;61855;55.030;73.326;2022-08-19T12:31:43;100548.78;;;12.85;nan
59600;BME280;61855;55.030;73.326;2022-08-19T12:34:09;100540.50;;;13.02;nan
59600;BME280;61855;55.030;73.326;2022-08-19T12:36:35;100539.59;;;12.72;nan
59600;BME280;61855;55.030;73.326;2022-08-19T12:39:01;100530.28;;;12.52;nan
59600;BME280;61855;55.030;73.326;2022-08-19T12:41:30;100544.91;;;12.43;nan
59600;BME280;61855;55.030;73.326;2022-08-19T12:43:56;100535.34;;;12.32;nan
59600;BME280;61855;55.030;73.326;2022-08-19T12:46:24;100525.91;;;12.28;nan
59600;BME280;61855;55.030;73.326;2022-08-19T12:48:51;100546.66;;;12.36;nan
59600;BME280;61855;55.030;73.326;2022-08-19T12:51:18;100533.59;;;12.39;nan
59600;BME280;61855;55.030;73.326;2022-08-19T12:53:47;100540.22;;;12.37;nan
59600;BME280;61855;55.030;73.326;2022-08-19T12:56:15;100542.81;;;12.30;nan
59600;BME280;61855;55.030;73.326;2022-08-19T12:58:43;100533.91;;;12.21;nan
59600;BME280;61855;55.030;73.326;2022-08-19T13:01:20;100542.84;;;12.22;nan
59600;BME280;61855;55.030;73.326;2022-08-19T13:03:46;100542.56;;;12.17;nan
59600;BME280;61855;55.030;73.326;2022-08-19T13:06:13;100550.38;;;12.12;nan
59600;BME280;61855;55.030;73.326;2022-08-19T13:08:39;100544.88;;;11.97;nan
59600;BME280;61855;55.030;73.326;2022-08-19T13:11:13;100541.22;;;11.82;nan
59600;BME280;61855;55.030;73.326;2022-08-19T13:13:45;100539.00;;;11.47;nan
59600;BME280;61855;55.030;73.326;2022-08-19T13:16:15;100540.38;;;11.35;nan
59600;BME280;61855;55.030;73.326;2022-08-19T13:18:45;100536.56;;;11.21;nan
59600;BME280;61855;55.030;73.326;2022-08-19T13:21:25;62956.78;;;-141.76;100.00
59600;BME280;61855;55.030;73.326;2022-08-19T13:26:24;100538.75;;;11.18;100.00
59600;BME280;61855;55.030;73.326;2022-08-19T13:29:17;62956.78;;;-141.76;100.00
59600;BME280;61855;55.030;73.326;2022-08-19T13:32:06;100538.41;;;11.21;nan